Time;durP1;ratioP1;P1;durP2;ratioP2;P2;SDS_P1;SDS_P2;PMS_P1;PMS_P2;Temp;Humidity;BMP_temperature;BMP_pressure;BME280_temperature;BME280_humidity;BME280_pressure;Samples;Min_cycle;Max_cycle;Signal;HPM_P1;HPM_P2
2022/10/14 00:00:46;;;;;;;43.98;34.05;;;24.40;93.30;;;;;;1793990;79;21092;-83
2022/10/14 00:03:17;;;;;;;33.73;27.35;;;24.40;93.40;;;;;;1781493;79;21230;-83
2022/10/14 00:05:47;;;;;;;35.08;24.45;;;24.40;93.50;;;;;;1789306;79;21684;-82
2022/10/14 00:08:18;;;;;;;29.60;22.87;;;24.40;93.40;;;;;;1759396;80;21128;-82
2022/10/14 00:10:50;;;;;;;25.40;21.42;;;24.40;93.20;;;;;;1768423;80;21216;-82
2022/10/14 00:13:21;;;;;;;27.98;22.05;;;24.40;93.10;;;;;;1736883;81;21274;-82
2022/10/14 00:15:52;;;;;;;32.53;20.65;;;24.40;93.10;;;;;;1787049;79;21257;-84
2022/10/14 00:18:22;;;;;;;27.65;21.30;;;24.50;93.50;;;;;;1789821;79;21203;-83
2022/10/14 00:20:57;;;;;;;25.72;20.95;;;24.50;93.30;;;;;;1764075;80;21236;-82
2022/10/14 00:23:29;;;;;;;24.67;20.62;;;24.50;93.10;;;;;;1731090;81;21191;-82
2022/10/14 00:26:00;;;;;;;25.52;20.80;;;24.60;93.40;;;;;;1725581;81;21209;-83
2022/10/14 00:28:31;;;;;;;24.60;20.10;;;24.60;93.30;;;;;;1733881;83;21189;-83
2022/10/14 00:31:02;;;;;;;23.20;19.60;;;24.60;93.10;;;;;;1715324;82;21272;-83
2022/10/14 00:33:33;;;;;;;25.20;19.48;;;24.60;93.30;;;;;;1747624;81;21311;-83
2022/10/14 00:36:06;;;;;;;26.50;19.45;;;24.70;93.00;;;;;;1709120;83;21227;-83
2022/10/14 00:38:36;;;;;;;23.10;19.00;;;24.70;92.80;;;;;;1728868;83;21236;-85
2022/10/14 00:41:10;;;;;;;26.97;19.00;;;24.80;93.10;;;;;;1722876;81;21256;-83
2022/10/14 00:43:43;;;;;;;22.50;18.40;;;24.80;92.90;;;;;;1746840;81;21256;-83
2022/10/14 00:46:14;;;;;;;23.00;17.57;;;24.80;92.90;;;;;;1749523;81;21127;-83
2022/10/14 00:48:45;;;;;;;24.27;18.25;;;24.80;92.80;;;;;;1708594;83;21242;-85
2022/10/14 00:51:16;;;;;;;23.70;18.05;;;24.90;92.80;;;;;;1710735;83;21210;-82
2022/10/14 00:53:47;;;;;;;23.02;20.30;;;24.90;92.80;;;;;;1735031;81;21176;-83
2022/10/14 00:56:20;;;;;;;30.70;20.88;;;25.00;92.80;;;;;;1738182;81;21217;-84
2022/10/14 00:58:52;;;;;;;25.80;20.12;;;25.00;92.80;;;;;;1750294;81;21244;-81
2022/10/14 01:01:23;;;;;;;22.52;20.02;;;25.10;92.80;;;;;;1746061;80;21648;-83
2022/10/14 01:03:56;;;;;;;27.98;20.88;;;25.20;92.60;;;;;;1735771;81;21174;-82
2022/10/14 01:06:30;;;;;;;22.35;18.80;;;25.10;92.60;;;;;;1737814;81;21204;-82
2022/10/14 01:09:03;;;;;;;28.32;19.07;;;25.20;92.90;;;;;;1732886;81;21154;-82
2022/10/14 01:11:36;;;;;;;40.78;20.08;;;25.20;92.60;;;;;;1739320;81;21632;-76
2022/10/14 01:14:09;;;;;;;135.80;27.77;;;25.20;92.60;;;;;;1727826;82;21679;-75
2022/10/14 01:16:43;;;;;;;52.30;19.10;;;25.20;92.10;;;;;;1737031;81;21244;-75
2022/10/14 01:19:16;;;;;;;39.45;17.80;;;25.30;91.40;;;;;;1734739;81;21614;-76
2022/10/14 01:21:49;;;;;;;32.30;18.52;;;25.30;91.00;;;;;;1739198;81;21518;-75
2022/10/14 01:24:22;;;;;;;22.60;16.23;;;25.40;91.30;;;;;;1741440;81;21206;-74
2022/10/14 01:26:56;;;;;;;20.43;15.58;;;25.50;91.30;;;;;;1726824;81;21174;-76
2022/10/14 01:29:30;;;;;;;19.25;14.95;;;25.60;91.10;;;;;;1724974;81;21711;-75
2022/10/14 01:32:03;;;;;;;22.42;14.95;;;25.70;90.40;;;;;;1730599;82;21241;-76
2022/10/14 01:34:36;;;;;;;19.75;13.15;;;25.70;90.30;;;;;;1699870;83;21927;-75
2022/10/14 01:37:09;;;;;;;18.87;13.62;;;25.80;88.90;;;;;;1700607;83;21203;-76
2022/10/14 01:39:42;;;;;;;20.50;13.50;;;25.90;88.00;;;;;;1680130;84;21672;-75
2022/10/14 01:42:15;;;;;;;18.35;14.65;;;25.90;88.00;;;;;;1739545;80;21831;-75
2022/10/14 01:44:51;;;;;;;20.00;14.73;;;26.00;88.20;;;;;;1725876;82;21506;-78
2022/10/14 01:47:24;;;;;;;19.77;14.73;;;26.00;88.10;;;;;;1735731;82;21138;-77
2022/10/14 01:49:58;;;;;;;14.68;11.63;;;26.00;88.20;;;;;;1734195;82;21210;-77
2022/10/14 01:52:31;;;;;;;19.32;12.35;;;26.10;84.90;;;;;;1737631;82;21496;-76
2022/10/14 01:55:04;;;;;;;16.87;12.10;;;26.10;83.40;;;;;;1734108;81;21679;-76
2022/10/14 01:57:38;;;;;;;16.02;12.07;;;26.10;83.40;;;;;;1734764;82;21688;-76
2022/10/14 02:00:10;;;;;;;18.65;12.58;;;26.20;83.40;;;;;;1731614;81;21202;-75
2022/10/14 02:02:42;;;;;;;19.35;13.28;;;26.20;83.80;;;;;;1731853;81;21157;-77
2022/10/14 02:05:15;;;;;;;18.75;11.95;;;26.30;84.30;;;;;;1729307;80;21255;-77
2022/10/14 02:07:52;;;;;;;18.62;12.78;;;26.30;83.70;;;;;;1730648;81;21193;-75
2022/10/14 02:10:22;;;;;;;14.43;11.70;;;26.40;83.00;;;;;;1733432;80;21272;-78
2022/10/14 02:12:57;;;;;;;17.32;11.95;;;26.50;82.30;;;;;;1725259;82;21683;-77
2022/10/14 02:15:31;;;;;;;16.17;12.13;;;26.60;82.30;;;;;;1716417;81;21214;-75
2022/10/14 02:18:04;;;;;;;17.02;12.50;;;26.70;82.40;;;;;;1737075;81;21122;-78
2022/10/14 02:20:37;;;;;;;19.80;12.73;;;26.70;81.80;;;;;;1712889;82;21140;-76
2022/10/14 02:23:10;;;;;;;16.42;12.37;;;26.80;82.10;;;;;;1725209;82;21146;-77
2022/10/14 02:25:44;;;;;;;16.90;13.13;;;26.90;81.60;;;;;;1724346;82;21178;-75
2022/10/14 02:28:17;;;;;;;19.55;13.08;;;26.90;82.20;;;;;;1728242;82;21728;-74
2022/10/14 02:30:51;;;;;;;18.95;12.20;;;26.90;81.40;;;;;;1726569;82;21554;-76
2022/10/14 02:33:24;;;;;;;18.05;12.75;;;26.90;81.10;;;;;;1726083;82;21063;-77
2022/10/14 02:35:56;;;;;;;17.17;11.22;;;26.90;81.30;;;;;;1709529;83;21146;-78
2022/10/14 02:38:28;;;;;;;15.93;11.50;;;26.90;80.30;;;;;;1724920;82;21127;-78
2022/10/14 02:41:01;;;;;;;17.87;11.80;;;27.00;79.60;;;;;;1727266;81;21131;-76
2022/10/14 02:43:32;;;;;;;16.95;11.35;;;27.10;79.50;;;;;;1725775;83;21220;-76
2022/10/14 02:46:04;;;;;;;15.83;9.80;;;27.10;77.50;;;;;;1724842;82;21087;-75
2022/10/14 02:48:35;;;;;;;13.72;8.65;;;27.20;73.50;;;;;;1670559;84;21170;-77
2022/10/14 02:51:05;;;;;;;11.18;8.08;;;27.30;72.50;;;;;;1671892;85;21193;-77
2022/10/14 02:53:36;;;;;;;11.83;8.08;;;27.40;67.50;;;;;;1730219;81;21590;-77
2022/10/14 02:56:08;;;;;;;10.40;7.97;;;27.40;67.60;;;;;;1724970;82;21119;-76
2022/10/14 02:58:39;;;;;;;11.63;8.60;;;27.50;67.30;;;;;;1725222;83;21166;-76
2022/10/14 03:01:10;;;;;;;10.72;8.23;;;27.50;66.50;;;;;;1730596;82;21134;-74
2022/10/14 03:03:40;;;;;;;11.60;8.20;;;27.70;66.50;;;;;;1728330;82;21174;-78
2022/10/14 03:06:11;;;;;;;12.95;8.58;;;27.70;65.90;;;;;;1729819;81;21158;-76
2022/10/14 03:08:42;;;;;;;13.98;8.73;;;27.80;65.80;;;;;;1714207;83;22357;-77
2022/10/14 03:11:13;;;;;;;14.25;9.05;;;27.90;66.30;;;;;;1725995;81;21254;-76
2022/10/14 03:13:44;;;;;;;13.65;9.18;;;28.00;66.10;;;;;;1728624;82;21240;-76
2022/10/14 03:16:16;;;;;;;11.85;8.65;;;28.10;63.20;;;;;;1725752;82;21170;-77
2022/10/14 03:18:47;;;;;;;10.58;7.78;;;28.20;63.90;;;;;;1720990;82;21302;-76
2022/10/14 03:21:19;;;;;;;10.70;7.83;;;28.30;63.50;;;;;;1719625;82;21473;-76
2022/10/14 03:23:52;;;;;;;12.25;8.28;;;28.30;65.30;;;;;;1730547;82;21193;-76
2022/10/14 03:26:23;;;;;;;16.67;9.00;;;28.40;64.30;;;;;;1741574;82;21138;-76
2022/10/14 03:28:54;;;;;;;11.88;8.18;;;28.40;63.00;;;;;;1730569;83;21182;-77
2022/10/14 03:31:25;;;;;;;15.50;10.25;;;28.50;62.70;;;;;;1734573;82;21590;-76
2022/10/14 03:33:59;;;;;;;13.20;9.00;;;28.40;62.00;;;;;;1726975;82;21271;-77
2022/10/14 03:36:30;;;;;;;19.48;9.63;;;28.50;62.10;;;;;;1727244;82;21374;-78
2022/10/14 03:39:05;;;;;;;14.10;8.68;;;28.50;62.00;;;;;;1730624;82;21612;-78
2022/10/14 03:41:40;;;;;;;13.40;8.38;;;28.50;62.00;;;;;;1725724;82;21267;-78
2022/10/14 03:44:12;;;;;;;9.98;7.95;;;28.60;61.90;;;;;;1714349;82;21119;-78
2022/10/14 03:46:43;;;;;;;12.60;8.38;;;28.60;62.20;;;;;;1700286;83;21141;-77
2022/10/14 03:49:14;;;;;;;11.10;8.33;;;28.70;62.50;;;;;;1720235;83;21720;-73
2022/10/14 03:51:44;;;;;;;13.40;8.10;;;28.80;61.40;;;;;;1731224;81;21170;-74
2022/10/14 03:54:15;;;;;;;11.93;7.92;;;28.90;62.20;;;;;;1746178;81;21165;-75
2022/10/14 03:56:46;;;;;;;15.30;7.97;;;28.90;62.50;;;;;;1732832;82;22156;-76
2022/10/14 03:59:17;;;;;;;13.25;8.63;;;28.90;61.70;;;;;;1729665;82;21154;-75
2022/10/14 04:01:49;;;;;;;14.38;8.15;;;29.10;61.70;;;;;;1751575;81;21159;-76
2022/10/14 04:04:20;;;;;;;12.05;8.83;;;29.20;61.80;;;;;;1762909;81;21258;-76
2022/10/14 04:06:50;;;;;;;16.85;8.53;;;29.20;61.30;;;;;;1778291;80;21104;-79
2022/10/14 04:09:21;;;;;;;14.10;8.33;;;29.30;61.90;;;;;;1747996;81;21174;-75
2022/10/14 04:11:56;;;;;;;12.47;8.05;;;29.40;62.00;;;;;;1747225;81;21696;-76
2022/10/14 04:14:28;;;;;;;13.62;8.10;;;29.40;60.80;;;;;;1760970;81;21907;-75
2022/10/14 04:16:59;;;;;;;14.80;7.90;;;29.40;60.60;;;;;;1755762;80;21112;-76
2022/10/14 04:19:30;;;;;;;13.40;7.92;;;29.40;60.60;;;;;;1750446;81;21143;-75
2022/10/14 04:22:01;;;;;;;15.10;8.88;;;29.40;60.20;;;;;;1752745;81;21186;-76
2022/10/14 04:24:31;;;;;;;13.88;7.50;;;29.50;59.60;;;;;;1763251;81;21889;-74
2022/10/14 04:27:10;;;;;;;10.82;7.42;;;29.50;60.00;;;;;;1759968;80;21095;-76
2022/10/14 04:29:37;;;;;;;17.05;8.25;;;29.70;60.00;;;;;;1703515;83;21155;-76
2022/10/14 04:32:07;;;;;;;12.30;7.72;;;29.70;59.90;;;;;;1767681;79;21147;-76
2022/10/14 04:34:38;;;;;;;13.90;7.87;;;29.80;58.70;;;;;;1769438;80;21099;-76
2022/10/14 04:37:09;;;;;;;12.18;8.23;;;29.80;58.00;;;;;;1767487;81;21282;-75
2022/10/14 04:39:40;;;;;;;12.73;7.70;;;29.80;58.10;;;;;;1767561;80;21180;-75
2022/10/14 04:42:10;;;;;;;13.18;7.67;;;29.90;58.20;;;;;;1738603;82;21117;-75
2022/10/14 04:44:41;;;;;;;12.35;7.45;;;29.90;57.80;;;;;;1724250;81;21146;-77
2022/10/14 04:47:12;;;;;;;14.73;7.72;;;30.00;57.10;;;;;;1721933;82;21271;-78
2022/10/14 04:49:43;;;;;;;13.75;8.38;;;30.10;57.00;;;;;;1725897;83;21200;-77
2022/10/14 04:52:13;;;;;;;11.30;7.62;;;30.10;57.30;;;;;;1726589;81;21121;-75
2022/10/14 04:54:44;;;;;;;12.63;7.83;;;30.10;56.50;;;;;;1730403;82;21138;-76
2022/10/14 04:57:15;;;;;;;13.20;7.65;;;30.10;55.80;;;;;;1725212;82;21692;-76
2022/10/14 04:59:45;;;;;;;15.00;7.67;;;30.10;56.80;;;;;;1722901;81;21256;-75
2022/10/14 05:02:16;;;;;;;14.15;8.00;;;30.10;56.60;;;;;;1698275;82;21200;-76
2022/10/14 05:04:47;;;;;;;11.75;7.12;;;30.10;53.50;;;;;;1724604;83;21128;-75
2022/10/14 05:07:18;;;;;;;12.95;7.90;;;30.10;53.70;;;;;;1729641;82;21646;-75
2022/10/14 05:09:49;;;;;;;13.20;7.78;;;30.10;54.70;;;;;;1703608;83;21270;-75
2022/10/14 05:12:21;;;;;;;12.18;7.67;;;30.10;53.70;;;;;;1699018;84;21204;-75
2022/10/14 05:14:53;;;;;;;10.32;7.72;;;30.10;54.10;;;;;;1732571;81;21663;-75
2022/10/14 05:17:24;;;;;;;10.15;7.75;;;30.10;54.60;;;;;;1731777;81;21174;-75
2022/10/14 05:19:58;;;;;;;11.70;7.55;;;30.10;54.90;;;;;;1735078;81;21071;-75
2022/10/14 05:22:30;;;;;;;13.00;8.03;;;30.20;54.80;;;;;;1741469;81;21676;-75
2022/10/14 05:25:01;;;;;;;15.58;7.83;;;30.20;55.10;;;;;;1731938;81;21573;-77
2022/10/14 05:27:32;;;;;;;9.35;7.37;;;30.30;55.70;;;;;;1740775;81;21200;-78
2022/10/14 05:30:03;;;;;;;14.40;7.70;;;30.30;55.60;;;;;;1746908;81;21158;-78
2022/10/14 05:32:34;;;;;;;10.45;7.25;;;30.40;55.50;;;;;;1766134;80;21084;-79
2022/10/14 05:35:06;;;;;;;14.43;7.55;;;30.50;55.70;;;;;;1786787;80;21727;-78
2022/10/14 05:37:37;;;;;;;14.87;7.37;;;30.50;54.50;;;;;;1726998;83;21225;-79
2022/10/14 05:40:08;;;;;;;11.08;6.95;;;30.50;54.80;;;;;;1708947;81;22462;-77
2022/10/14 05:42:39;;;;;;;10.30;7.08;;;30.50;54.10;;;;;;1735629;83;21175;-77
2022/10/14 05:45:10;;;;;;;10.05;6.45;;;30.50;53.80;;;;;;1712202;83;21669;-77
2022/10/14 05:47:43;;;;;;;11.90;6.95;;;30.50;55.40;;;;;;1760453;80;21679;-78
2022/10/14 05:50:15;;;;;;;9.70;6.90;;;30.50;54.30;;;;;;1766261;80;21181;-79
2022/10/14 05:52:45;;;;;;;13.43;7.15;;;30.40;54.80;;;;;;1758599;80;21474;-79
2022/10/14 05:55:18;;;;;;;9.65;7.10;;;30.40;54.20;;;;;;1732690;83;21224;-80
2022/10/14 05:57:48;;;;;;;11.97;7.42;;;30.50;54.30;;;;;;1751928;80;21165;-79
2022/10/14 06:00:20;;;;;;;10.38;6.87;;;30.50;54.10;;;;;;1759641;81;21251;-78
2022/10/14 06:02:52;;;;;;;12.60;6.53;;;30.60;53.80;;;;;;1767707;80;21127;-78
2022/10/14 06:05:23;;;;;;;10.03;6.80;;;30.60;53.40;;;;;;1755423;81;21784;-76
2022/10/14 06:07:54;;;;;;;11.43;7.33;;;30.60;54.40;;;;;;1768652;80;21205;-80
2022/10/14 06:10:28;;;;;;;11.25;7.22;;;30.70;53.40;;;;;;1762514;80;21196;-79
2022/10/14 06:12:59;;;;;;;13.30;6.45;;;30.70;53.60;;;;;;1785451;80;21605;-79
2022/10/14 06:15:30;;;;;;;11.55;6.55;;;30.80;54.20;;;;;;1761551;80;21217;-79
2022/10/14 06:18:02;;;;;;;11.53;6.90;;;30.80;53.30;;;;;;1759389;81;21659;-79
2022/10/14 06:20:32;;;;;;;11.22;7.03;;;30.90;51.60;;;;;;1760119;81;21141;-79
2022/10/14 06:23:04;;;;;;;8.53;6.00;;;30.90;52.10;;;;;;1759957;81;21652;-77
2022/10/14 06:25:36;;;;;;;8.60;5.97;;;31.00;52.10;;;;;;1765873;80;21669;-77
2022/10/14 06:28:08;;;;;;;10.58;6.35;;;31.00;51.20;;;;;;1743925;80;21200;-77
2022/10/14 06:30:39;;;;;;;9.23;6.25;;;31.10;51.10;;;;;;1735214;81;21632;-77
2022/10/14 06:33:10;;;;;;;9.65;6.42;;;31.10;51.10;;;;;;1740099;82;21170;-76
2022/10/14 06:35:41;;;;;;;9.88;6.80;;;31.10;50.50;;;;;;1780046;79;21240;-77
2022/10/14 06:38:12;;;;;;;8.83;5.65;;;31.10;51.00;;;;;;1739751;81;21276;-78
2022/10/14 06:40:43;;;;;;;11.73;6.53;;;31.10;51.90;;;;;;1773431;80;22115;-77
2022/10/14 06:43:15;;;;;;;10.30;6.40;;;31.10;51.40;;;;;;1738632;81;21159;-77
2022/10/14 06:45:49;;;;;;;10.55;6.33;;;31.10;50.80;;;;;;1728617;81;21654;-77
2022/10/14 06:48:20;;;;;;;10.68;6.80;;;31.10;50.80;;;;;;1733039;81;21201;-76
2022/10/14 06:50:51;;;;;;;11.95;6.37;;;31.00;50.60;;;;;;1744362;81;21162;-76
2022/10/14 06:53:22;;;;;;;11.18;6.37;;;31.00;51.30;;;;;;1704052;83;21853;-77
2022/10/14 06:55:56;;;;;;;8.93;6.60;;;30.90;51.20;;;;;;1718328;82;21287;-76
2022/10/14 06:58:26;;;;;;;8.80;6.20;;;30.90;52.00;;;;;;1740328;81;21273;-76
2022/10/14 07:01:03;;;;;;;16.00;6.80;;;30.80;51.50;;;;;;1773534;79;21206;-76
2022/10/14 07:03:35;;;;;;;10.20;6.67;;;30.80;51.50;;;;;;1737193;81;21205;-76
2022/10/14 07:06:08;;;;;;;10.95;6.42;;;30.70;51.60;;;;;;1708042;82;21194;-77
2022/10/14 07:08:39;;;;;;;10.40;5.87;;;30.60;52.10;;;;;;1719091;82;21186;-77
2022/10/14 07:11:10;;;;;;;8.95;6.12;;;30.60;52.10;;;;;;1741706;81;21639;-75
2022/10/14 07:13:41;;;;;;;11.03;6.47;;;30.60;52.40;;;;;;1712754;81;21828;-76
2022/10/14 07:16:12;;;;;;;10.75;5.78;;;30.50;52.60;;;;;;1736672;81;21130;-77
2022/10/14 07:18:45;;;;;;;10.03;6.35;;;30.40;52.40;;;;;;1714859;82;21138;-77
2022/10/14 07:21:16;;;;;;;10.13;6.58;;;30.30;52.70;;;;;;1716820;82;21157;-74
2022/10/14 07:23:46;;;;;;;8.05;6.33;;;30.30;53.30;;;;;;1708284;82;21197;-76
2022/10/14 07:26:17;;;;;;;8.70;5.75;;;30.20;53.10;;;;;;1732579;81;21749;-77
2022/10/14 07:28:48;;;;;;;9.23;6.33;;;30.30;52.50;;;;;;1711190;83;21437;-77
2022/10/14 07:31:19;;;;;;;10.25;6.87;;;30.20;53.40;;;;;;1710143;81;21313;-77
2022/10/14 07:33:50;;;;;;;13.78;7.28;;;30.20;53.40;;;;;;1725866;81;21751;-77
2022/10/14 07:36:23;;;;;;;9.78;5.80;;;30.20;53.40;;;;;;1722467;81;21566;-77
2022/10/14 07:38:54;;;;;;;10.18;6.28;;;30.10;53.90;;;;;;1762169;80;21603;-77
2022/10/14 07:41:25;;;;;;;8.90;6.62;;;30.10;54.40;;;;;;1768745;79;21174;-77
2022/10/14 07:44:01;;;;;;;10.88;6.95;;;30.00;54.60;;;;;;1754859;80;21126;-76
2022/10/14 07:46:32;;;;;;;9.75;6.03;;;30.00;54.80;;;;;;1751424;81;21186;-75
2022/10/14 07:49:06;;;;;;;12.88;7.03;;;30.00;54.00;;;;;;1759770;81;21554;-77
2022/10/14 07:51:37;;;;;;;9.85;6.78;;;29.90;54.40;;;;;;1755940;80;21229;-78
2022/10/14 07:54:11;;;;;;;9.10;6.25;;;30.00;54.80;;;;;;1737382;81;21111;-77
2022/10/14 07:56:50;;;;;;;11.80;6.67;;;29.90;55.00;;;;;;1736129;81;21606;-77
2022/10/14 07:59:20;;;;;;;10.35;6.85;;;29.90;55.10;;;;;;1759372;80;21574;-79
2022/10/14 08:01:52;;;;;;;9.93;6.60;;;29.90;55.20;;;;;;1725854;82;21156;-75
2022/10/14 08:04:24;;;;;;;12.60;7.05;;;29.90;55.50;;;;;;1770616;80;21092;-78
2022/10/14 08:06:55;;;;;;;12.13;6.80;;;29.90;55.70;;;;;;1722868;82;21185;-77
2022/10/14 08:09:27;;;;;;;11.97;7.47;;;29.90;56.30;;;;;;1760858;79;21605;-79
2022/10/14 08:11:58;;;;;;;12.05;8.35;;;29.90;55.70;;;;;;1739221;81;21193;-77
2022/10/14 08:14:29;;;;;;;12.63;7.92;;;29.90;55.50;;;;;;1757610;81;21634;-77
2022/10/14 08:17:00;;;;;;;12.53;7.45;;;29.90;55.60;;;;;;1759487;81;21182;-76
2022/10/14 08:19:31;;;;;;;12.20;7.35;;;29.90;55.70;;;;;;1745871;81;21188;-76
2022/10/14 08:22:02;;;;;;;12.78;7.12;;;29.80;57.20;;;;;;1741161;81;21204;-77
2022/10/14 08:24:33;;;;;;;12.43;6.78;;;29.80;55.70;;;;;;1753763;80;21935;-78
2022/10/14 08:27:05;;;;;;;11.38;6.90;;;29.90;55.70;;;;;;1757885;80;21096;-77
2022/10/14 08:29:36;;;;;;;11.35;7.03;;;29.90;55.40;;;;;;1764288;80;22036;-76
2022/10/14 08:32:07;;;;;;;10.82;7.45;;;29.90;55.30;;;;;;1758040;80;21615;-77
2022/10/14 08:34:37;;;;;;;11.38;7.45;;;29.90;55.50;;;;;;1757485;81;21181;-75
2022/10/14 08:37:10;;;;;;;10.00;6.55;;;30.00;55.80;;;;;;1763835;81;21245;-77
2022/10/14 08:39:42;;;;;;;12.45;6.97;;;30.00;55.90;;;;;;1757682;81;21622;-79
2022/10/14 08:42:15;;;;;;;10.23;6.87;;;29.90;55.60;;;;;;1752654;81;21657;-77
2022/10/14 08:44:49;;;;;;;11.83;7.03;;;29.90;55.50;;;;;;1751968;81;21166;-76
2022/10/14 08:47:22;;;;;;;11.33;7.15;;;29.90;56.30;;;;;;1751186;81;21239;-75
2022/10/14 08:49:56;;;;;;;10.98;7.08;;;29.90;56.50;;;;;;1728610;82;21769;-77
2022/10/14 08:52:32;;;;;;;12.35;7.12;;;29.80;56.50;;;;;;1731912;81;21693;-78
2022/10/14 08:55:07;;;;;;;13.75;6.92;;;29.80;56.90;;;;;;1710036;82;21283;-79
2022/10/14 08:57:40;;;;;;;9.50;7.12;;;29.80;57.00;;;;;;1709894;82;21245;-76
2022/10/14 09:00:13;;;;;;;11.55;6.53;;;29.80;57.00;;;;;;1704000;83;21950;-77
2022/10/14 09:02:48;;;;;;;10.72;6.80;;;29.80;57.40;;;;;;1729628;81;21803;-79
2022/10/14 09:05:22;;;;;;;12.13;6.78;;;29.80;57.00;;;;;;1757531;81;21717;-77
2022/10/14 09:07:55;;;;;;;11.03;7.08;;;29.70;57.60;;;;;;1753682;80;21751;-77
2022/10/14 09:10:28;;;;;;;12.33;7.00;;;29.70;58.20;;;;;;1758677;81;21673;-78
2022/10/14 09:13:01;;;;;;;12.58;7.00;;;29.60;58.20;;;;;;1753744;81;21158;-76
2022/10/14 09:15:35;;;;;;;13.60;7.20;;;29.60;58.30;;;;;;1728177;82;21229;-79
2022/10/14 09:18:09;;;;;;;13.15;7.08;;;29.60;58.60;;;;;;1729434;81;21184;-79
2022/10/14 09:20:41;;;;;;;13.00;7.50;;;29.50;58.70;;;;;;1739860;82;21635;-77
2022/10/14 09:23:14;;;;;;;10.48;7.47;;;29.50;59.10;;;;;;1745295;82;21174;-79
2022/10/14 09:25:47;;;;;;;12.93;8.13;;;29.50;59.40;;;;;;1740548;81;21281;-77
2022/10/14 09:28:18;;;;;;;15.98;7.37;;;29.50;59.50;;;;;;1721293;82;21610;-78
2022/10/14 09:30:50;;;;;;;11.90;7.95;;;29.50;59.40;;;;;;1732209;82;21197;-77
2022/10/14 09:33:21;;;;;;;13.90;7.30;;;29.50;59.80;;;;;;1740815;81;21202;-77
2022/10/14 09:35:52;;;;;;;13.83;7.53;;;29.40;59.70;;;;;;1729861;81;21673;-77
2022/10/14 09:38:27;;;;;;;14.53;8.98;;;29.50;60.00;;;;;;1730077;82;21113;-77
2022/10/14 09:41:00;;;;;;;14.70;7.83;;;29.40;60.40;;;;;;1768863;80;21162;-78
2022/10/14 09:43:30;;;;;;;13.13;8.55;;;29.40;60.70;;;;;;1765644;81;21107;-75
2022/10/14 09:46:06;;;;;;;11.25;7.75;;;29.40;61.00;;;;;;1761046;81;21810;-77
2022/10/14 09:48:42;;;;;;;15.40;8.20;;;29.40;60.60;;;;;;1761692;80;21229;-78
2022/10/14 09:51:32;;;;;;;14.20;8.60;;;29.40;60.40;;;;;;1771218;80;21677;-77
2022/10/14 09:54:05;;;;;;;11.97;8.78;;;29.30;60.40;;;;;;1771548;80;21166;-77
2022/10/14 09:56:41;;;;;;;17.92;9.05;;;29.20;60.20;;;;;;1759516;80;21216;-77
2022/10/14 09:59:29;;;;;;;13.98;8.78;;;29.10;60.50;;;;;;1769770;80;21713;-77
2022/10/14 10:02:03;;;;;;;13.90;8.73;;;29.10;60.50;;;;;;1775682;80;21229;-77
2022/10/14 10:04:35;;;;;;;13.95;8.30;;;29.00;61.10;;;;;;1718126;83;21189;-77
2022/10/14 10:07:09;;;;;;;14.23;9.55;;;29.00;59.90;;;;;;1764843;80;21177;-78
2022/10/14 10:09:40;;;;;;;14.13;9.10;;;28.90;60.50;;;;;;1760027;80;21687;-76
2022/10/14 10:12:14;;;;;;;13.30;9.18;;;28.90;60.40;;;;;;1765208;81;21811;-76
2022/10/14 10:14:47;;;;;;;12.18;9.48;;;28.80;60.20;;;;;;1773662;80;21205;-76
2022/10/14 10:17:19;;;;;;;16.02;9.93;;;28.80;60.80;;;;;;1732111;81;21131;-76
2022/10/14 10:19:52;;;;;;;14.10;9.73;;;28.80;60.80;;;;;;1767270;81;21233;-75
2022/10/14 10:22:25;;;;;;;15.75;10.13;;;28.80;60.90;;;;;;1722034;83;21234;-75
2022/10/14 10:24:58;;;;;;;16.15;9.78;;;28.80;60.90;;;;;;1763890;80;21111;-76
2022/10/14 10:27:34;;;;;;;13.78;10.35;;;28.70;60.60;;;;;;1768002;80;21744;-77
2022/10/14 10:30:07;;;;;;;15.90;9.63;;;28.70;60.60;;;;;;1770220;80;21111;-77
2022/10/14 10:32:41;;;;;;;15.08;9.78;;;28.70;60.30;;;;;;1772674;78;21172;-84
2022/10/14 10:35:14;;;;;;;17.00;10.58;;;28.80;60.40;;;;;;1772494;79;21170;-83
2022/10/14 10:37:47;;;;;;;15.93;10.25;;;28.80;61.30;;;;;;1773163;79;21613;-83
2022/10/14 10:40:19;;;;;;;20.72;11.48;;;28.80;61.10;;;;;;1733304;81;21227;-83
2022/10/14 10:42:55;;;;;;;18.37;10.50;;;28.70;61.10;;;;;;1782622;80;21121;-83
2022/10/14 10:45:37;;;;;;;15.58;11.03;;;28.70;61.60;;;;;;1807696;79;21154;-83
2022/10/14 10:48:12;;;;;;;16.07;11.22;;;28.70;61.60;;;;;;1782801;79;21143;-81
2022/10/14 10:50:47;;;;;;;17.02;11.95;;;28.60;62.00;;;;;;1780455;80;21277;-82
2022/10/14 10:53:22;;;;;;;19.73;12.65;;;28.60;62.20;;;;;;1730872;81;21174;-83
2022/10/14 10:55:58;;;;;;;19.77;11.83;;;28.60;62.40;;;;;;1707046;83;21194;-83
2022/10/14 10:58:34;;;;;;;18.60;11.23;;;28.60;62.50;;;;;;1718818;81;21166;-82
2022/10/14 11:01:06;;;;;;;18.85;11.25;;;28.50;62.80;;;;;;1753512;81;21724;-82
2022/10/14 11:03:36;;;;;;;20.82;13.48;;;28.50;63.00;;;;;;1738345;81;21201;-80
2022/10/14 11:06:09;;;;;;;21.95;12.90;;;28.50;63.30;;;;;;1724810;83;21685;-81
2022/10/14 11:14:00;;;;;;;22.90;13.00;;;28.40;63.90;;;;;;1697890;83;21204;-82
2022/10/14 11:16:34;;;;;;;19.70;13.35;;;28.40;63.90;;;;;;1697961;82;21210;-81
2022/10/14 11:19:07;;;;;;;23.65;13.48;;;28.40;64.20;;;;;;1697101;84;21188;-83
2022/10/14 11:21:41;;;;;;;22.80;12.88;;;28.30;64.40;;;;;;1702978;83;21667;-81
2022/10/14 11:24:15;;;;;;;21.60;13.03;;;28.30;64.70;;;;;;1705651;82;21146;-81
2022/10/14 11:26:48;;;;;;;19.20;13.55;;;28.30;65.10;;;;;;1704612;83;21185;-84
2022/10/14 11:29:22;;;;;;;27.20;14.75;;;28.30;65.50;;;;;;1700977;82;21135;-82
2022/10/14 11:31:55;;;;;;;19.95;13.15;;;28.20;65.60;;;;;;1695932;82;21146;-83
2022/10/14 11:34:27;;;;;;;19.50;13.45;;;28.20;66.10;;;;;;1703716;82;21214;-83
2022/10/14 11:37:01;;;;;;;18.42;13.80;;;28.20;66.20;;;;;;1728889;81;21158;-82
2022/10/14 11:39:33;;;;;;;19.40;13.78;;;28.20;66.40;;;;;;1751655;81;21118;-83
2022/10/14 11:42:10;;;;;;;22.00;13.88;;;28.20;66.50;;;;;;1788306;78;21505;-84
2022/10/14 11:44:42;;;;;;;19.77;13.05;;;28.20;67.00;;;;;;1765549;80;21149;-84
2022/10/14 11:47:14;;;;;;;20.77;13.20;;;28.20;67.10;;;;;;1789207;80;21213;-81
2022/10/14 11:49:47;;;;;;;22.70;12.85;;;28.20;67.20;;;;;;1764501;80;21229;-83
2022/10/14 11:52:20;;;;;;;22.85;13.00;;;28.20;67.10;;;;;;1785133;80;21553;-83
2022/10/14 11:54:53;;;;;;;20.32;12.93;;;28.10;67.10;;;;;;1788728;79;21190;-83
2022/10/14 11:57:27;;;;;;;73.02;55.08;;;28.10;67.20;;;;;;1767767;80;21185;-82
2022/10/14 12:00:01;;;;;;;17.02;11.57;;;28.10;67.50;;;;;;1763612;81;21116;-81
2022/10/14 12:02:35;;;;;;;17.65;11.88;;;28.10;67.20;;;;;;1763954;80;21770;-81
2022/10/14 12:05:08;;;;;;;21.20;12.25;;;28.10;67.20;;;;;;1764483;80;21186;-83
2022/10/14 12:07:44;;;;;;;76.02;41.68;;;28.10;67.60;;;;;;1760347;80;21181;-82
2022/10/14 12:10:18;;;;;;;21.15;15.63;;;28.10;67.90;;;;;;1764184;81;21713;-84
2022/10/14 12:12:51;;;;;;;24.18;17.02;;;28.10;68.00;;;;;;1763665;81;21158;-81
2022/10/14 12:15:28;;;;;;;23.22;15.50;;;28.10;67.50;;;;;;1764384;81;21171;-81
2022/10/14 12:18:01;;;;;;;25.05;14.90;;;28.10;67.90;;;;;;1762953;80;21878;-81
2022/10/14 12:20:35;;;;;;;23.98;15.85;;;28.10;68.00;;;;;;1763146;80;21232;-82
2022/10/14 12:23:08;;;;;;;23.75;15.20;;;28.10;67.90;;;;;;1757956;80;21147;-81
2022/10/14 12:25:42;;;;;;;22.37;14.65;;;28.10;68.30;;;;;;1742810;80;21190;-83
2022/10/14 12:28:15;;;;;;;22.73;14.43;;;28.10;68.30;;;;;;1765285;80;21225;-82
2022/10/14 12:30:46;;;;;;;22.02;14.53;;;28.10;68.40;;;;;;1763056;80;21181;-81
2022/10/14 12:33:20;;;;;;;22.60;14.87;;;28.10;68.40;;;;;;1778397;80;21244;-82
2022/10/14 12:35:53;;;;;;;24.52;16.25;;;28.10;68.50;;;;;;1746473;82;21127;-81
2022/10/14 12:38:24;;;;;;;26.90;15.90;;;28.00;68.60;;;;;;1748699;81;21118;-82
2022/10/14 12:40:58;;;;;;;24.55;16.07;;;28.00;68.80;;;;;;1732324;82;21179;-82
2022/10/14 12:43:29;;;;;;;29.63;20.85;;;28.00;69.00;;;;;;1729134;82;21190;-81
2022/10/14 12:46:02;;;;;;;36.50;21.95;;;28.00;69.40;;;;;;1723731;82;21297;-82
2022/10/14 12:48:35;;;;;;;30.85;20.97;;;28.00;69.50;;;;;;1726485;83;21201;-80
2022/10/14 12:51:07;;;;;;;35.30;22.45;;;27.90;69.80;;;;;;1734176;82;21174;-82
2022/10/14 12:53:40;;;;;;;38.13;22.80;;;27.90;69.90;;;;;;1753081;82;21222;-81
2022/10/14 12:56:14;;;;;;;34.18;23.18;;;27.90;70.20;;;;;;1771299;80;21233;-82
2022/10/14 12:58:47;;;;;;;40.03;22.98;;;27.90;70.40;;;;;;1773962;80;21256;-81
2022/10/14 13:01:23;;;;;;;27.93;21.17;;;27.90;70.60;;;;;;1766358;80;21186;-83
2022/10/14 13:03:59;;;;;;;28.40;20.23;;;27.80;70.60;;;;;;1767022;79;21177;-81